Terminal Aerodrome Forecast
Issued by NWS

Home | Current Version | Previous Version | Text Only | Print | Product List | Glossary On
Versions: 1 2 3 4 5 6 7 8 9 10 11 12 13 14 15 16 17 18 19 20
000
FTAK31 PAFA 162335
TAFAOR
TAF
PAOR 162335Z 1700/1724 VRB04KT P6SM SCT050 SCT100 BKN200
     FM171200 VRB04KT P6SM SCT025 BKN100 OVC200
     FM171800 VRB03KT P6SM VCSH SCT025 BKN050 OVC100=

USA.gov is the U.S. government's official web portal to all federal, state and local government web resources and services.